aviador You're here:

KOFF Decoded Metar

OMAHA in NE, USA
Report Time2017-07-24 15:56:00
UTC Time2017-07-24 16:38:28
Flight Rules vfr VFR
Wind150° at 06 kt
W.Decomp.*RWY 12: 5.4 kt HW 2.5 kt RCW
W.Rank150° ranks 5
Current wind is below 150° avg. (9.0)
Visibility9999 m
Phenomena:N/A
Clouds:N/A
Expected CloudBase > 3,600 ft AGL from Temp-Dew spread
CeilingNone
Temp25°C (ISA +12)
Dew Point16°C (57% RH)
AAT24.8°C
QNH1017 hPa
Density Alt2,556 ft
Elevation1,047 ft
Report Wrong Elevation
Raw Report
KOFF 241556Z AUTO 15006KT 10SM CLR 25/16 A3003 RMK AO2 SLP166
T02500164 $=

Extra information for KOFF:More info

Metar Taf Metar & Taf Last 4 Metars F.Rules Stats Wind Profile Meteogram Temp Stats Airport Information Weather charts Add Link Nearby VenuesMetar ALERT Operation Metar Decoded Social comments

AIRNAV info for KOFF